createdAt,value
2019-02-11T00:00:12.293Z,17.4
2019-02-11T00:00:52.900Z,17.37
2019-02-11T00:01:33.494Z,17.34
2019-02-11T00:02:14.112Z,17.4
2019-02-11T00:02:54.737Z,17.43
2019-02-11T00:03:35.340Z,17.43
2019-02-11T00:04:15.964Z,17.44
2019-02-11T00:04:56.611Z,17.41
2019-02-11T00:05:37.220Z,17.44
2019-02-11T00:06:18.246Z,17.41
2019-02-11T00:06:58.893Z,17.44
2019-02-11T00:07:39.506Z,17.46
2019-02-11T00:08:20.120Z,17.46
2019-02-11T00:09:01.094Z,17.52
2019-02-11T00:09:41.766Z,17.4
2019-02-11T00:10:22.398Z,17.46
2019-02-11T00:11:03.024Z,17.44
2019-02-11T00:11:43.642Z,17.43
2019-02-11T00:12:24.242Z,17.48
2019-02-11T00:13:10.309Z,17.36
2019-02-11T00:13:45.510Z,17.44
2019-02-11T00:14:26.100Z,17.48
2019-02-11T00:15:06.737Z,17.46
2019-02-11T00:15:47.340Z,17.43
2019-02-11T00:16:27.948Z,17.43
2019-02-11T00:17:08.550Z,17.44
2019-02-11T00:17:49.184Z,17.44
2019-02-11T00:18:30.006Z,17.43
2019-02-11T00:19:11.063Z,17.43
2019-02-11T00:19:51.236Z,17.36
2019-02-11T00:20:31.845Z,17.4
2019-02-11T00:21:12.474Z,17.33
2019-02-11T00:21:53.080Z,17.43
2019-02-11T00:22:48.375Z,17.41
2019-02-11T00:23:29.114Z,17.41
2019-02-11T00:24:09.724Z,17.41
2019-02-11T00:24:50.347Z,17.38
2019-02-11T00:25:30.967Z,17.46
2019-02-11T00:26:11.618Z,17.4
2019-02-11T00:26:52.279Z,17.44
2019-02-11T00:27:32.910Z,17.49
2019-02-11T00:28:13.580Z,17.41
2019-02-11T00:28:54.213Z,17.43
2019-02-11T00:29:34.906Z,17.43
2019-02-11T00:30:15.564Z,17.46
2019-02-11T00:32:31.002Z,17.46
2019-02-11T00:33:11.601Z,17.44
2019-02-11T00:33:52.283Z,17.37
2019-02-11T00:34:32.947Z,17.4
2019-02-11T00:35:13.585Z,17.34
2019-02-11T00:35:54.160Z,17.34
2019-02-11T00:36:34.819Z,17.36
2019-02-11T00:37:15.605Z,17.41
2019-02-11T00:37:56.198Z,17.43
2019-02-11T00:38:36.786Z,17.43
2019-02-11T00:39:17.381Z,17.44
2019-02-11T00:39:57.980Z,17.41
2019-02-11T00:40:38.619Z,17.43
2019-02-11T00:41:19.281Z,17.4
2019-02-11T00:41:59.906Z,17.49
2019-02-11T00:42:40.528Z,17.43
2019-02-11T00:43:21.126Z,17.36
2019-02-11T00:44:01.736Z,17.44
2019-02-11T00:44:42.333Z,17.34
2019-02-11T00:45:22.964Z,17.37
2019-02-11T00:46:03.599Z,17.41
2019-02-11T00:46:44.238Z,17.36
2019-02-11T00:47:24.830Z,17.48
2019-02-11T00:48:07.099Z,17.44
2019-02-11T00:48:46.023Z,17.38
2019-02-11T00:49:26.660Z,17.49
2019-02-11T00:50:07.284Z,17.41
2019-02-11T00:50:47.893Z,17.36
2019-02-11T00:51:28.500Z,17.46
2019-02-11T00:52:09.193Z,17.36
2019-02-11T00:52:49.802Z,17.48
2019-02-11T00:53:30.450Z,17.38
2019-02-11T00:54:11.069Z,17.43
2019-02-11T00:54:51.664Z,17.43
2019-02-11T00:55:32.282Z,17.38
2019-02-11T00:56:12.897Z,17.37
2019-02-11T00:56:53.528Z,17.41
2019-02-11T00:57:34.118Z,17.43
2019-02-11T00:58:14.710Z,17.44
2019-02-11T00:58:55.350Z,17.48
2019-02-11T00:59:35.961Z,17.44
2019-02-11T01:00:16.549Z,17.36
2019-02-11T01:00:57.131Z,17.41
2019-02-11T01:01:37.731Z,17.49
2019-02-11T01:02:18.336Z,17.36
2019-02-11T01:02:58.934Z,17.41
2019-02-11T01:03:39.625Z,17.33
2019-02-11T01:04:20.505Z,17.49
2019-02-11T01:05:01.090Z,17.41
2019-02-11T01:05:41.724Z,17.51
2019-02-11T01:06:22.379Z,17.43
2019-02-11T01:07:02.989Z,17.43
2019-02-11T01:07:43.588Z,17.48
2019-02-11T01:08:24.183Z,17.49
2019-02-11T01:09:04.792Z,17.34
2019-02-11T01:09:45.384Z,17.36
2019-02-11T01:10:25.988Z,17.44
2019-02-11T01:11:06.592Z,17.38
2019-02-11T01:11:47.188Z,17.41
2019-02-11T01:12:27.777Z,17.44
2019-02-11T01:13:08.438Z,17.41
2019-02-11T01:13:49.026Z,17.41
2019-02-11T01:14:29.622Z,17.44
2019-02-11T01:15:10.234Z,17.36
2019-02-11T01:15:50.835Z,17.4
2019-02-11T01:16:31.442Z,17.34
2019-02-11T01:17:12.035Z,17.4
2019-02-11T01:17:52.632Z,17.41
2019-02-11T01:18:33.240Z,17.4
2019-02-11T01:19:13.827Z,17.31
2019-02-11T01:19:54.435Z,17.41
2019-02-11T01:20:35.038Z,17.44
2019-02-11T01:21:15.627Z,17.4
2019-02-11T01:21:56.221Z,17.4
2019-02-11T01:22:36.832Z,17.34
2019-02-11T01:23:17.463Z,17.4
2019-02-11T01:23:58.038Z,17.41
2019-02-11T01:24:38.646Z,17.44
2019-02-11T01:25:19.237Z,17.43
2019-02-11T01:25:59.844Z,17.43
2019-02-11T01:26:40.443Z,17.46
2019-02-11T01:27:21.037Z,17.48
2019-02-11T01:28:01.634Z,17.31
2019-02-11T01:28:42.211Z,17.38
2019-02-11T01:29:22.850Z,17.49
2019-02-11T01:30:03.457Z,17.41
2019-02-11T01:30:44.055Z,17.41
2019-02-11T01:31:24.656Z,17.41
2019-02-11T01:32:05.264Z,17.41
2019-02-11T01:32:45.862Z,17.44
2019-02-11T01:33:26.456Z,17.41
2019-02-11T01:34:07.042Z,17.4
2019-02-11T01:34:47.622Z,17.41
2019-02-11T01:35:28.229Z,17.4
2019-02-11T01:36:08.832Z,17.4
2019-02-11T01:36:49.424Z,17.41
2019-02-11T01:37:30.039Z,17.43
2019-02-11T01:38:10.638Z,17.41
2019-02-11T01:38:51.239Z,17.41
2019-02-11T01:39:31.828Z,17.44
2019-02-11T01:40:12.422Z,17.3
2019-02-11T01:40:53.011Z,17.41
2019-02-11T01:41:33.622Z,17.46
2019-02-11T01:42:14.217Z,17.36
2019-02-11T01:42:54.808Z,17.46
2019-02-11T01:43:36.201Z,17.41
2019-02-11T01:44:16.038Z,17.4
2019-02-11T01:44:56.633Z,17.4
2019-02-11T01:45:37.235Z,17.38
2019-02-11T01:46:17.852Z,17.46
2019-02-11T01:46:58.451Z,17.38
2019-02-11T01:47:39.037Z,17.25
2019-02-11T01:48:19.640Z,17.37
2019-02-11T01:49:00.242Z,17.36
2019-02-11T01:49:40.836Z,17.34
2019-02-11T01:50:21.432Z,17.44
2019-02-11T01:51:02.056Z,17.38
2019-02-11T01:51:42.667Z,17.44
2019-02-11T01:52:23.261Z,17.37
2019-02-11T01:53:03.843Z,17.43
2019-02-11T01:53:44.436Z,17.4
2019-02-11T01:54:25.020Z,17.46
2019-02-11T01:55:05.673Z,17.37
2019-02-11T01:55:46.276Z,17.4
2019-02-11T01:56:26.882Z,17.33
2019-02-11T01:57:07.470Z,17.4
2019-02-11T01:57:48.067Z,17.33
2019-02-11T01:58:28.679Z,17.36
2019-02-11T01:59:09.251Z,17.36
2019-02-11T01:59:49.840Z,17.38
2019-02-11T02:00:30.438Z,17.46
2019-02-11T02:01:11.037Z,17.34
2019-02-11T02:01:51.614Z,17.44
2019-02-11T02:02:32.233Z,17.37
2019-02-11T02:03:12.839Z,17.4
2019-02-11T02:03:53.425Z,17.43
2019-02-11T02:04:34.015Z,17.38
2019-02-11T02:05:14.637Z,17.33
2019-02-11T02:05:55.253Z,17.37
2019-02-11T02:06:35.850Z,17.4
2019-02-11T02:07:16.457Z,17.41
2019-02-11T02:07:57.034Z,17.34
2019-02-11T02:08:37.634Z,17.37
2019-02-11T02:09:18.230Z,17.33
2019-02-11T02:09:58.807Z,17.34
2019-02-11T02:10:39.394Z,17.43
2019-02-11T02:11:19.985Z,17.38
2019-02-11T02:12:00.581Z,17.38
2019-02-11T02:12:41.166Z,17.44
2019-02-11T02:13:21.767Z,17.43
2019-02-11T02:14:02.356Z,17.38
2019-02-11T02:14:42.951Z,17.38
2019-02-11T02:15:23.555Z,17.4
2019-02-11T02:16:04.152Z,17.38
2019-02-11T02:16:44.804Z,17.36
2019-02-11T02:17:25.395Z,17.43
2019-02-11T02:18:06.001Z,17.34
2019-02-11T02:18:46.597Z,17.36
2019-02-11T02:19:27.244Z,17.36
2019-02-11T02:20:07.853Z,17.37
2019-02-11T02:20:48.430Z,17.34
2019-02-11T02:21:29.038Z,17.33
2019-02-11T02:22:09.632Z,17.33
2019-02-11T02:22:50.234Z,17.33
2019-02-11T02:23:30.839Z,17.36
2019-02-11T02:24:11.453Z,17.31
2019-02-11T02:24:52.047Z,17.34
2019-02-11T02:25:32.651Z,17.37
2019-02-11T02:26:13.231Z,17.37
2019-02-11T02:26:53.857Z,17.37
2019-02-11T02:27:34.458Z,17.34
2019-02-11T02:28:15.098Z,17.34
2019-02-11T02:28:55.641Z,17.31
2019-02-11T02:29:36.292Z,17.34
2019-02-11T02:30:16.874Z,17.33
2019-02-11T02:30:57.489Z,17.34
2019-02-11T02:31:38.077Z,17.31
2019-02-11T02:32:18.671Z,17.34
2019-02-11T02:32:59.334Z,17.33
2019-02-11T02:33:39.875Z,17.4
2019-02-11T02:34:20.486Z,17.34
2019-02-11T02:35:01.090Z,17.33
2019-02-11T02:35:41.685Z,17.36
2019-02-11T02:36:22.285Z,17.41
2019-02-11T02:37:02.891Z,17.34
2019-02-11T02:37:43.544Z,17.34
2019-02-11T02:38:24.138Z,17.31
2019-02-11T02:39:04.740Z,17.33
2019-02-11T02:39:45.373Z,17.4
2019-02-11T02:40:25.972Z,17.31
2019-02-11T02:41:06.558Z,17.36
2019-02-11T02:41:47.177Z,17.31
2019-02-11T02:42:27.792Z,17.34
2019-02-11T02:43:08.387Z,17.33
2019-02-11T02:43:55.301Z,17.28
2019-02-11T02:44:29.579Z,17.37
2019-02-11T02:45:10.182Z,17.34
2019-02-11T02:45:50.795Z,17.31
2019-02-11T02:46:31.431Z,17.34
2019-02-11T02:47:12.018Z,17.31
2019-02-11T02:47:52.617Z,17.34
2019-02-11T02:48:33.217Z,17.37
2019-02-11T02:49:13.817Z,17.36
2019-02-11T02:49:54.425Z,17.3
2019-02-11T02:50:35.016Z,17.28
2019-02-11T02:51:15.606Z,17.37
2019-02-11T02:51:56.225Z,17.33
2019-02-11T02:52:36.822Z,17.31
2019-02-11T02:53:17.410Z,17.33
2019-02-11T02:53:58.011Z,17.3
2019-02-11T02:54:38.635Z,17.37
2019-02-11T02:55:19.224Z,17.26
2019-02-11T02:55:59.831Z,17.3
2019-02-11T02:56:40.449Z,17.36
2019-02-11T02:57:21.083Z,17.34
2019-02-11T02:58:01.715Z,17.3
2019-02-11T02:58:42.304Z,17.31
2019-02-11T02:59:22.899Z,17.33
2019-02-11T03:00:03.511Z,17.36
2019-02-11T03:00:44.141Z,17.36
2019-02-11T03:01:24.737Z,17.33
2019-02-11T03:02:05.335Z,17.31
2019-02-11T03:02:45.942Z,17.25
2019-02-11T03:03:26.526Z,17.28
2019-02-11T03:04:07.113Z,17.38
2019-02-11T03:04:47.711Z,17.3
2019-02-11T03:05:28.307Z,17.37
2019-02-11T03:06:08.907Z,17.34
2019-02-11T03:06:49.503Z,17.36
2019-02-11T03:07:30.107Z,17.3
2019-02-11T03:08:10.712Z,17.26
2019-02-11T03:08:51.297Z,17.34
2019-02-11T03:09:31.929Z,17.26
2019-02-11T03:10:12.505Z,17.34
2019-02-11T03:10:53.090Z,17.25
2019-02-11T03:11:33.703Z,17.22
2019-02-11T03:12:14.295Z,17.3
2019-02-11T03:12:54.935Z,17.28
2019-02-11T03:13:35.539Z,17.26
2019-02-11T03:14:16.131Z,17.22
2019-02-11T03:14:56.729Z,17.34
2019-02-11T03:15:37.340Z,17.28
2019-02-11T03:16:17.934Z,17.23
2019-02-11T03:16:58.525Z,17.21
2019-02-11T03:17:39.125Z,17.28
2019-02-11T03:18:19.729Z,17.22
2019-02-11T03:19:00.343Z,17.28
2019-02-11T03:19:40.956Z,17.3
2019-02-11T03:20:21.562Z,17.26
2019-02-11T03:21:02.161Z,17.31
2019-02-11T03:21:42.761Z,17.3
2019-02-11T03:22:23.360Z,17.33
2019-02-11T03:23:03.987Z,17.26
2019-02-11T03:23:44.571Z,17.31
2019-02-11T03:24:25.174Z,17.28
2019-02-11T03:25:05.767Z,17.21
2019-02-11T03:25:46.357Z,17.28
2019-02-11T03:26:26.951Z,17.22
2019-02-11T03:27:07.537Z,17.3
2019-02-11T03:27:48.116Z,17.31
2019-02-11T03:28:28.704Z,17.31
2019-02-11T03:29:09.297Z,17.33
2019-02-11T03:29:49.914Z,17.26
2019-02-11T03:30:30.537Z,17.3
2019-02-11T03:31:11.136Z,17.21
2019-02-11T03:31:51.753Z,17.31
2019-02-11T03:32:32.337Z,17.28
2019-02-11T03:33:12.929Z,17.26
2019-02-11T03:33:53.523Z,17.19
2019-02-11T03:34:34.133Z,17.3
2019-02-11T03:35:14.737Z,17.3
2019-02-11T03:35:55.335Z,17.26
2019-02-11T03:36:35.937Z,17.31
2019-02-11T03:37:16.551Z,17.28
2019-02-11T03:37:57.156Z,17.31
2019-02-11T03:38:37.741Z,17.31
2019-02-11T03:39:18.337Z,17.22
2019-02-11T03:39:58.953Z,17.19
2019-02-11T03:40:39.538Z,17.28
2019-02-11T03:41:20.134Z,17.21
2019-02-11T03:42:00.743Z,17.31
2019-02-11T03:42:41.337Z,17.26
2019-02-11T03:43:21.931Z,17.3
2019-02-11T03:44:02.541Z,17.19
2019-02-11T03:44:43.125Z,17.25
2019-02-11T03:45:23.717Z,17.36
2019-02-11T03:46:04.318Z,17.31
2019-02-11T03:46:44.921Z,17.28
2019-02-11T03:47:25.527Z,17.3
2019-02-11T03:48:06.141Z,17.21
2019-02-11T03:48:46.735Z,17.21
2019-02-11T03:49:27.367Z,17.33
2019-02-11T03:50:07.971Z,17.22
2019-02-11T03:50:48.579Z,17.31
2019-02-11T03:51:29.171Z,17.19
2019-02-11T03:52:09.775Z,17.26
2019-02-11T03:52:50.375Z,17.31
2019-02-11T03:53:30.979Z,17.21
2019-02-11T03:54:11.573Z,17.26
2019-02-11T03:54:52.182Z,17.26
2019-02-11T03:55:32.782Z,17.26
2019-02-11T03:56:13.371Z,17.28
2019-02-11T03:56:53.973Z,17.18
2019-02-11T03:57:34.551Z,17.28
2019-02-11T03:58:15.162Z,17.31
2019-02-11T03:58:55.761Z,17.22
2019-02-11T03:59:36.361Z,17.19
2019-02-11T04:00:16.957Z,17.25
2019-02-11T04:00:57.581Z,17.21
2019-02-11T04:01:38.186Z,17.28
2019-02-11T04:02:18.773Z,17.21
2019-02-11T04:02:59.373Z,17.26
2019-02-11T04:03:39.967Z,17.21
2019-02-11T04:04:20.613Z,17.28
2019-02-11T04:05:01.213Z,17.21
2019-02-11T04:05:41.799Z,17.31
2019-02-11T04:06:22.402Z,17.18
2019-02-11T04:07:02.995Z,17.21
2019-02-11T04:07:43.633Z,17.19
2019-02-11T04:08:24.342Z,17.3
2019-02-11T04:09:04.912Z,17.19
2019-02-11T04:09:45.517Z,17.31
2019-02-11T04:10:26.099Z,17.19
2019-02-11T04:11:06.715Z,17.31
2019-02-11T04:11:47.288Z,17.22
2019-02-11T04:12:27.889Z,17.22
2019-02-11T04:13:08.506Z,17.28
2019-02-11T04:13:49.123Z,17.23
2019-02-11T04:14:29.703Z,17.33
2019-02-11T04:15:10.305Z,17.26
2019-02-11T04:15:50.903Z,17.18
2019-02-11T04:16:31.493Z,17.33
2019-02-11T04:17:12.083Z,17.31
2019-02-11T04:17:52.652Z,17.23
2019-02-11T04:18:33.250Z,17.19
2019-02-11T04:19:13.835Z,17.21
2019-02-11T04:19:54.435Z,17.3
2019-02-11T04:20:35.032Z,17.18
2019-02-11T04:21:15.627Z,17.22
2019-02-11T04:21:56.227Z,17.25
2019-02-11T04:22:36.828Z,17.28
2019-02-11T04:23:17.425Z,17.25
2019-02-11T04:23:58.033Z,17.34
2019-02-11T04:24:38.631Z,17.26
2019-02-11T04:25:19.237Z,17.19
2019-02-11T04:25:59.827Z,17.3
2019-02-11T04:26:40.427Z,17.19
2019-02-11T04:27:21.016Z,17.19
2019-02-11T04:28:01.604Z,17.3
2019-02-11T04:28:42.195Z,17.19
2019-02-11T04:29:22.789Z,17.18
2019-02-11T04:30:03.396Z,17.22
2019-02-11T04:30:43.993Z,17.23
2019-02-11T04:31:24.582Z,17.28
2019-02-11T04:32:05.169Z,17.23
2019-02-11T04:32:45.805Z,17.23
2019-02-11T04:33:26.407Z,17.31
2019-02-11T04:34:07.015Z,17.22
2019-02-11T04:34:47.618Z,17.16
2019-02-11T04:35:28.209Z,17.23
2019-02-11T04:36:08.807Z,17.18
2019-02-11T04:36:49.405Z,17.22
2019-02-11T04:37:30.015Z,17.31
2019-02-11T04:38:10.619Z,17.3
2019-02-11T04:38:51.227Z,17.18
2019-02-11T04:39:31.827Z,17.3
2019-02-11T04:40:12.417Z,17.16
2019-02-11T04:40:53.025Z,17.21
2019-02-11T04:41:33.631Z,17.22
2019-02-11T04:42:14.236Z,17.31
2019-02-11T04:42:54.815Z,17.3
2019-02-11T04:43:35.415Z,17.21
2019-02-11T04:44:16.035Z,17.19
2019-02-11T04:44:56.651Z,17.18
2019-02-11T04:45:37.246Z,17.19
2019-02-11T04:46:17.846Z,17.21
2019-02-11T04:46:58.443Z,17.28
2019-02-11T04:47:39.041Z,17.21
2019-02-11T04:48:19.649Z,17.19
2019-02-11T04:49:00.239Z,17.22
2019-02-11T04:49:40.839Z,17.26
2019-02-11T04:50:21.439Z,17.21
2019-02-11T04:51:02.050Z,17.23
2019-02-11T04:51:42.656Z,17.18
2019-02-11T04:52:23.267Z,17.18
2019-02-11T04:53:03.867Z,17.23
2019-02-11T04:53:44.463Z,17.18
2019-02-11T04:54:25.061Z,17.21
2019-02-11T04:55:05.672Z,17.16
2019-02-11T04:55:46.247Z,17.19
2019-02-11T04:56:26.843Z,17.21
2019-02-11T04:57:07.439Z,17.19
2019-02-11T04:57:48.071Z,17.22
2019-02-11T04:58:28.685Z,17.18
2019-02-11T04:59:09.288Z,17.22
2019-02-11T04:59:49.871Z,17.16
2019-02-11T05:00:30.478Z,17.19
2019-02-11T05:01:11.071Z,17.22
2019-02-11T05:01:51.702Z,17.21
2019-02-11T05:02:32.298Z,17.21
2019-02-11T05:03:12.912Z,17.19
2019-02-11T05:03:54.013Z,17.22
2019-02-11T05:04:34.121Z,17.23
2019-02-11T05:05:14.717Z,17.19
2019-02-11T05:05:55.349Z,17.19
2019-02-11T05:06:35.962Z,17.22
2019-02-11T05:07:16.550Z,17.19
2019-02-11T05:07:57.157Z,17.25
2019-02-11T05:08:37.758Z,17.19
2019-02-11T05:09:18.351Z,17.16
2019-02-11T05:09:58.957Z,17.23
2019-02-11T05:10:39.539Z,17.22
2019-02-11T05:11:20.137Z,17.16
2019-02-11T05:12:00.737Z,17.19
2019-02-11T05:12:41.365Z,17.23
2019-02-11T05:13:21.961Z,17.22
2019-02-11T05:14:02.557Z,17.19
2019-02-11T05:14:44.114Z,17.23
2019-02-11T05:15:23.813Z,17.18
2019-02-11T05:16:04.444Z,17.22
2019-02-11T05:16:45.066Z,17.22
2019-02-11T05:17:25.660Z,17.19
2019-02-11T05:18:06.286Z,17.16
2019-02-11T05:18:46.900Z,17.19
2019-02-11T05:19:27.488Z,17.22
2019-02-11T05:20:08.065Z,17.23
2019-02-11T05:20:48.653Z,17.22
2019-02-11T05:21:29.246Z,17.18
2019-02-11T05:22:09.872Z,17.23
2019-02-11T05:22:50.491Z,17.22
2019-02-11T05:23:31.104Z,17.23
2019-02-11T05:24:11.722Z,17.21
2019-02-11T05:24:52.341Z,17.18
2019-02-11T05:25:32.954Z,17.22
2019-02-11T05:26:13.553Z,17.19
2019-02-11T05:26:54.162Z,17.21
2019-02-11T05:27:34.759Z,17.21
2019-02-11T05:28:15.382Z,17.23
2019-02-11T05:28:55.997Z,17.22
2019-02-11T05:29:36.597Z,17.15
2019-02-11T05:30:17.203Z,17.23
2019-02-11T05:30:57.791Z,17.23
2019-02-11T05:31:38.375Z,17.16
2019-02-11T05:32:18.989Z,17.21
2019-02-11T05:32:59.629Z,17.19
2019-02-11T05:33:40.275Z,17.21
2019-02-11T05:34:20.881Z,17.18
2019-02-11T05:35:01.524Z,17.21
2019-02-11T05:35:42.124Z,17.21
2019-02-11T05:36:22.705Z,17.18
2019-02-11T05:37:03.305Z,17.16
2019-02-11T05:37:44.253Z,17.19
2019-02-11T05:38:24.511Z,17.23
2019-02-11T05:39:05.112Z,17.21
2019-02-11T05:39:45.706Z,17.19
2019-02-11T05:40:26.289Z,17.21
2019-02-11T05:41:06.881Z,17.16
2019-02-11T05:41:47.487Z,17.18
2019-02-11T05:42:28.124Z,17.22
2019-02-11T05:43:08.725Z,17.21
2019-02-11T05:43:49.324Z,17.21
2019-02-11T05:44:29.913Z,17.25
2019-02-11T05:45:10.508Z,17.23
2019-02-11T05:45:51.115Z,17.23
2019-02-11T05:46:31.737Z,17.22
2019-02-11T05:47:12.325Z,17.16
2019-02-11T05:47:52.917Z,17.21
2019-02-11T05:48:33.525Z,17.21
2019-02-11T05:49:14.181Z,17.18
2019-02-11T05:49:54.753Z,17.21
2019-02-11T05:50:35.351Z,17.18
2019-02-11T05:51:15.985Z,17.21
2019-02-11T05:51:56.580Z,17.23
2019-02-11T05:52:37.219Z,17.22
2019-02-11T05:53:17.809Z,17.19
2019-02-11T05:53:58.448Z,17.26
2019-02-11T05:54:39.041Z,17.28
2019-02-11T05:55:19.623Z,17.21
2019-02-11T05:56:00.227Z,17.16
2019-02-11T05:56:40.847Z,17.21
2019-02-11T05:57:21.488Z,17.16
2019-02-11T05:58:02.091Z,17.18
2019-02-11T05:58:42.730Z,17.25
2019-02-11T05:59:23.320Z,17.23
2019-02-11T06:00:03.940Z,17.25
2019-02-11T06:00:44.548Z,17.21
2019-02-11T06:01:25.186Z,17.19
2019-02-11T06:02:06.039Z,17.16
2019-02-11T06:02:46.642Z,17.18
2019-02-11T06:03:27.239Z,17.16
2019-02-11T06:04:07.835Z,17.15
2019-02-11T06:04:48.425Z,17.18
2019-02-11T06:05:29.023Z,17.21
2019-02-11T06:06:09.621Z,17.19
2019-02-11T06:06:50.244Z,17.19
2019-02-11T06:07:30.871Z,17.23
2019-02-11T06:08:11.471Z,17.16
2019-02-11T06:08:52.062Z,17.21
2019-02-11T06:09:32.672Z,17.23
2019-02-11T06:10:13.288Z,17.19
2019-02-11T06:10:53.887Z,17.16
2019-02-11T06:11:34.481Z,17.15
2019-02-11T06:12:15.087Z,17.19
2019-02-11T06:12:55.713Z,17.21
2019-02-11T06:13:36.334Z,17.22
2019-02-11T06:14:16.926Z,17.19
2019-02-11T06:15:03.892Z,17.16
2019-02-11T06:15:38.123Z,17.21
2019-02-11T06:16:18.721Z,17.16
2019-02-11T06:16:59.323Z,17.16
2019-02-11T06:17:40.075Z,17.21
2019-02-11T06:18:20.710Z,17.18
2019-02-11T06:19:01.318Z,17.22
2019-02-11T06:19:41.923Z,17.19
2019-02-11T06:20:22.491Z,17.15
2019-02-11T06:21:03.079Z,17.18
2019-02-11T06:21:43.674Z,17.14
2019-02-11T06:22:24.292Z,17.22
2019-02-11T06:23:04.895Z,17.23
2019-02-11T06:23:45.498Z,17.18
2019-02-11T06:24:26.105Z,17.21
2019-02-11T06:25:06.725Z,17.15
2019-02-11T06:25:47.328Z,17.19
2019-02-11T06:26:27.934Z,17.22
2019-02-11T06:27:08.533Z,17.23
2019-02-11T06:27:49.119Z,17.21
2019-02-11T06:28:29.714Z,17.21
2019-02-11T06:29:10.316Z,17.22
2019-02-11T06:29:50.901Z,17.14
2019-02-11T06:30:31.509Z,17.22
2019-02-11T06:31:12.102Z,17.15
2019-02-11T06:31:52.698Z,17.15
2019-02-11T06:32:33.308Z,17.16
2019-02-11T06:33:13.923Z,17.16
2019-02-11T06:33:54.521Z,17.14
2019-02-11T06:34:35.119Z,17.18
2019-02-11T06:35:15.709Z,17.16
2019-02-11T06:35:56.311Z,17.18
2019-02-11T06:36:36.924Z,17.22
2019-02-11T06:37:17.521Z,17.15
2019-02-11T06:37:58.116Z,17.18
2019-02-11T06:38:38.701Z,17.21
2019-02-11T06:39:19.312Z,17.16
2019-02-11T06:39:59.920Z,17.16
2019-02-11T06:40:40.533Z,17.15
2019-02-11T06:41:21.135Z,17.14
2019-02-11T06:42:01.736Z,17.18
2019-02-11T06:42:42.348Z,17.14
2019-02-11T06:43:22.964Z,17.15
2019-02-11T06:44:03.593Z,17.18
2019-02-11T06:44:44.207Z,17.21
2019-02-11T06:45:24.838Z,17.08
2019-02-11T06:46:05.469Z,17.21
2019-02-11T06:46:46.066Z,17.22
2019-02-11T06:47:26.678Z,17.15
2019-02-11T06:48:07.312Z,17.19
2019-02-11T06:48:47.924Z,17.18
2019-02-11T06:49:28.516Z,17.14
2019-02-11T06:50:09.109Z,17.15
2019-02-11T06:50:49.712Z,17.18
2019-02-11T06:51:30.328Z,17.21
2019-02-11T06:52:10.927Z,17.16
2019-02-11T06:52:51.563Z,17.18
2019-02-11T06:53:32.182Z,17.14
2019-02-11T06:54:12.773Z,17.06
2019-02-11T06:54:53.396Z,17.14
2019-02-11T06:55:34.002Z,17.21
2019-02-11T06:56:14.598Z,17.18
2019-02-11T06:56:55.201Z,17.07
2019-02-11T06:57:35.808Z,17.12
2019-02-11T06:58:16.394Z,17.16
2019-02-11T06:58:56.983Z,17.14
2019-02-11T06:59:37.565Z,17.12
2019-02-11T07:00:18.166Z,17.14
2019-02-11T07:00:58.752Z,17.11
2019-02-11T07:01:39.346Z,17.21
2019-02-11T07:02:19.950Z,17.16
2019-02-11T07:03:00.552Z,17.14
2019-02-11T07:03:41.163Z,17.15
2019-02-11T07:04:21.749Z,17.18
2019-02-11T07:05:02.366Z,17.15
2019-02-11T07:05:42.964Z,17.19
2019-02-11T07:06:23.570Z,17.16
2019-02-11T07:07:04.197Z,17.21
2019-02-11T07:07:44.774Z,17.16
2019-02-11T07:08:25.372Z,17.21
2019-02-11T07:09:05.976Z,17.18
2019-02-11T07:09:46.552Z,17.19
2019-02-11T07:10:27.169Z,17.15
2019-02-11T07:11:07.751Z,17.23
2019-02-11T07:11:48.412Z,17.21
2019-02-11T07:12:29.020Z,17.19
2019-02-11T07:13:09.616Z,17.19
2019-02-11T07:13:50.219Z,17.18
2019-02-11T07:14:30.822Z,17.18
2019-02-11T07:15:11.441Z,17.21
2019-02-11T07:15:52.120Z,17.21
2019-02-11T07:16:32.701Z,17.21
2019-02-11T07:17:13.300Z,17.18
2019-02-11T07:17:53.903Z,17.23
2019-02-11T07:18:36.168Z,17.22
2019-02-11T07:19:15.108Z,17.23
2019-02-11T07:19:55.705Z,17.19
2019-02-11T07:20:36.298Z,17.22
2019-02-11T07:21:16.894Z,17.18
2019-02-11T07:21:57.485Z,17.26
2019-02-11T07:22:38.080Z,17.21
2019-02-11T07:23:18.666Z,17.18
2019-02-11T07:23:59.270Z,17.18
2019-02-11T07:24:39.873Z,17.16
2019-02-11T07:25:20.504Z,17.19
2019-02-11T07:26:01.081Z,17.21
2019-02-11T07:26:41.664Z,17.18
2019-02-11T07:27:22.262Z,17.22
2019-02-11T07:28:02.850Z,17.25
2019-02-11T07:28:43.433Z,17.22
2019-02-11T07:29:24.025Z,17.18
2019-02-11T07:30:04.621Z,17.19
2019-02-11T07:30:45.222Z,17.22
2019-02-11T07:31:25.818Z,17.22
2019-02-11T07:32:06.415Z,17.22
2019-02-11T07:32:47.016Z,17.18
2019-02-11T07:33:27.626Z,17.19
2019-02-11T07:34:08.220Z,17.22
2019-02-11T07:34:48.840Z,17.19
2019-02-11T07:35:29.438Z,17.19
2019-02-11T07:36:10.028Z,17.21
2019-02-11T07:36:50.619Z,17.18
2019-02-11T07:37:31.210Z,17.18
2019-02-11T07:38:11.790Z,17.15
2019-02-11T07:38:52.391Z,17.21
2019-02-11T07:39:33.008Z,17.19
2019-02-11T07:40:13.632Z,17.23
2019-02-11T07:40:54.234Z,17.21
2019-02-11T07:41:34.840Z,17.19
2019-02-11T07:42:15.480Z,17.19
2019-02-11T07:42:56.104Z,17.19
2019-02-11T07:43:36.769Z,17.22
2019-02-11T07:44:17.412Z,17.23
2019-02-11T07:44:58.030Z,17.19
2019-02-11T07:45:38.638Z,17.21
2019-02-11T07:46:19.249Z,17.22
2019-02-11T07:46:59.840Z,17.31
2019-02-11T07:47:40.452Z,17.28
2019-02-11T07:48:21.046Z,17.36
2019-02-11T07:49:01.640Z,17.31
2019-02-11T07:49:42.242Z,17.21
2019-02-11T07:50:22.853Z,17.33
2019-02-11T07:51:03.512Z,17.19
2019-02-11T07:51:44.111Z,17.23
2019-02-11T07:52:26.796Z,17.26
2019-02-11T07:53:05.368Z,17.31
2019-02-11T07:53:46.098Z,17.28
2019-02-11T07:54:26.712Z,17.3
2019-02-11T07:55:07.319Z,17.3
2019-02-11T07:55:48.081Z,17.3
2019-02-11T07:56:29.174Z,17.34
2019-02-11T07:57:09.768Z,17.34
2019-02-11T07:57:50.364Z,17.34
2019-02-11T07:58:31.005Z,17.31
2019-02-11T07:59:11.602Z,17.31
2019-02-11T07:59:52.214Z,17.28
2019-02-11T08:00:32.806Z,17.36
2019-02-11T08:01:13.406Z,17.4
2019-02-11T08:01:54.015Z,17.31
2019-02-11T08:02:34.619Z,17.34
2019-02-11T08:03:15.222Z,17.37
2019-02-11T08:03:55.810Z,17.37
2019-02-11T08:04:36.390Z,17.37
2019-02-11T08:05:16.974Z,17.37
2019-02-11T08:05:57.592Z,17.33
2019-02-11T08:06:38.214Z,17.34
2019-02-11T08:07:18.816Z,17.33
2019-02-11T08:07:59.415Z,17.33
2019-02-11T08:08:40.006Z,17.33
2019-02-11T08:09:20.600Z,17.33
2019-02-11T08:10:01.188Z,17.34
2019-02-11T08:10:41.824Z,17.31
2019-02-11T08:11:22.412Z,17.34
2019-02-11T08:12:03.007Z,17.43
2019-02-11T08:12:43.605Z,17.43
2019-02-11T08:13:24.192Z,17.33
2019-02-11T08:14:04.786Z,17.34
2019-02-11T08:14:45.394Z,17.36
2019-02-11T08:15:25.976Z,17.38
2019-02-11T08:16:06.591Z,17.38
2019-02-11T08:16:47.186Z,17.31
2019-02-11T08:17:27.794Z,17.38
2019-02-11T08:18:08.394Z,17.41
2019-02-11T08:18:48.976Z,17.41
2019-02-11T08:19:29.598Z,17.4
2019-02-11T08:20:10.188Z,17.41
2019-02-11T08:20:50.836Z,17.41
2019-02-11T08:21:31.430Z,17.43
2019-02-11T08:22:12.032Z,17.4
2019-02-11T08:22:52.709Z,17.41
2019-02-11T08:23:33.309Z,17.4
2019-02-11T08:24:13.906Z,17.41
2019-02-11T08:24:54.506Z,17.38
2019-02-11T08:25:35.100Z,17.31
2019-02-11T08:26:15.711Z,17.34
2019-02-11T08:26:56.312Z,17.4
2019-02-11T08:27:36.928Z,17.37
2019-02-11T08:28:19.469Z,17.44
2019-02-11T08:28:58.218Z,17.41
2019-02-11T08:29:38.816Z,17.4
2019-02-11T08:30:19.430Z,17.38
2019-02-11T08:31:00.058Z,17.44
2019-02-11T08:31:40.650Z,17.37
2019-02-11T08:32:21.240Z,17.44
2019-02-11T08:33:01.832Z,17.37
2019-02-11T08:33:42.434Z,17.49
2019-02-11T08:34:23.040Z,17.38
2019-02-11T08:35:03.628Z,17.43
2019-02-11T08:35:44.270Z,17.41
2019-02-11T08:36:24.872Z,17.51
2019-02-11T08:37:05.470Z,17.54
2019-02-11T08:37:46.080Z,17.41
2019-02-11T08:38:26.668Z,17.46
2019-02-11T08:39:07.263Z,17.52
2019-02-11T08:39:47.854Z,17.48
2019-02-11T08:40:28.458Z,17.59
2019-02-11T08:41:09.040Z,17.51
2019-02-11T08:41:49.662Z,17.51
2019-02-11T08:42:30.266Z,17.51
2019-02-11T08:43:10.878Z,17.56
2019-02-11T08:43:51.468Z,17.56
2019-02-11T08:44:33.599Z,17.51
2019-02-11T08:45:12.665Z,17.56
2019-02-11T08:45:53.257Z,17.63